sensor_id;sensor_type;location;lat;lon;timestamp;P1;durP1;ratioP1;P2;durP2;ratioP2
33678;SDS011;23143;49.474;11.082;2022-09-16T00:00:14;4.00;;;2.88;;
33678;SDS011;23143;49.474;11.082;2022-09-16T00:00:45;4.18;;;2.95;;
33678;SDS011;23143;49.474;11.082;2022-09-16T00:01:17;5.63;;;3.40;;
33678;SDS011;23143;49.474;11.082;2022-09-16T00:01:49;4.07;;;3.00;;
33678;SDS011;23143;49.474;11.082;2022-09-16T00:02:19;4.70;;;2.95;;
33678;SDS011;23143;49.474;11.082;2022-09-16T00:02:50;5.97;;;3.55;;
33678;SDS011;23143;49.474;11.082;2022-09-16T00:03:22;5.35;;;3.25;;
33678;SDS011;23143;49.474;11.082;2022-09-16T00:03:53;6.20;;;4.40;;
33678;SDS011;23143;49.474;11.082;2022-09-16T00:04:25;5.35;;;3.72;;
33678;SDS011;23143;49.474;11.082;2022-09-16T00:04:55;3.97;;;3.17;;
33678;SDS011;23143;49.474;11.082;2022-09-16T00:05:26;5.13;;;3.20;;
33678;SDS011;23143;49.474;11.082;2022-09-16T00:05:57;5.63;;;3.38;;
33678;SDS011;23143;49.474;11.082;2022-09-16T00:06:28;6.15;;;3.13;;
33678;SDS011;23143;49.474;11.082;2022-09-16T00:06:59;6.70;;;3.30;;
33678;SDS011;23143;49.474;11.082;2022-09-16T00:07:29;4.78;;;3.25;;
33678;SDS011;23143;49.474;11.082;2022-09-16T00:08:00;6.63;;;4.00;;
33678;SDS011;23143;49.474;11.082;2022-09-16T00:08:31;6.50;;;3.78;;
33678;SDS011;23143;49.474;11.082;2022-09-16T00:09:02;7.28;;;3.58;;
33678;SDS011;23143;49.474;11.082;2022-09-16T00:09:33;7.43;;;3.78;;
33678;SDS011;23143;49.474;11.082;2022-09-16T00:10:06;6.50;;;4.05;;
33678;SDS011;23143;49.474;11.082;2022-09-16T00:10:37;8.90;;;4.00;;
33678;SDS011;23143;49.474;11.082;2022-09-16T00:11:07;5.63;;;3.63;;
33678;SDS011;23143;49.474;11.082;2022-09-16T00:11:38;6.43;;;4.22;;
33678;SDS011;23143;49.474;11.082;2022-09-16T00:12:09;5.90;;;3.50;;
33678;SDS011;23143;49.474;11.082;2022-09-16T00:12:39;8.38;;;3.88;;
33678;SDS011;23143;49.474;11.082;2022-09-16T00:13:11;6.53;;;3.60;;
33678;SDS011;23143;49.474;11.082;2022-09-16T00:13:42;8.90;;;3.72;;
33678;SDS011;23143;49.474;11.082;2022-09-16T00:14:13;6.03;;;3.70;;
33678;SDS011;23143;49.474;11.082;2022-09-16T00:14:43;8.52;;;3.53;;
33678;SDS011;23143;49.474;11.082;2022-09-16T00:15:14;5.25;;;3.22;;
33678;SDS011;23143;49.474;11.082;2022-09-16T00:15:46;5.15;;;3.25;;
33678;SDS011;23143;49.474;11.082;2022-09-16T00:16:25;7.68;;;4.13;;
33678;SDS011;23143;49.474;11.082;2022-09-16T00:16:56;4.43;;;3.45;;
33678;SDS011;23143;49.474;11.082;2022-09-16T00:17:27;4.95;;;2.90;;
33678;SDS011;23143;49.474;11.082;2022-09-16T00:17:59;6.90;;;3.25;;
33678;SDS011;23143;49.474;11.082;2022-09-16T00:18:29;8.65;;;3.38;;
33678;SDS011;23143;49.474;11.082;2022-09-16T00:19:00;6.97;;;3.58;;
33678;SDS011;23143;49.474;11.082;2022-09-16T00:19:32;5.35;;;3.67;;
33678;SDS011;23143;49.474;11.082;2022-09-16T00:20:03;5.70;;;3.80;;
33678;SDS011;23143;49.474;11.082;2022-09-16T00:20:35;4.43;;;3.10;;
33678;SDS011;23143;49.474;11.082;2022-09-16T00:21:06;6.05;;;3.45;;
33678;SDS011;23143;49.474;11.082;2022-09-16T00:21:38;8.30;;;3.20;;
33678;SDS011;23143;49.474;11.082;2022-09-16T00:22:08;4.90;;;2.78;;
33678;SDS011;23143;49.474;11.082;2022-09-16T00:22:39;5.70;;;3.10;;
33678;SDS011;23143;49.474;11.082;2022-09-16T00:23:10;6.47;;;3.20;;
33678;SDS011;23143;49.474;11.082;2022-09-16T00:23:40;5.75;;;3.38;;
33678;SDS011;23143;49.474;11.082;2022-09-16T00:24:11;5.93;;;3.55;;
33678;SDS011;23143;49.474;11.082;2022-09-16T00:24:43;4.90;;;3.40;;
33678;SDS011;23143;49.474;11.082;2022-09-16T00:25:13;4.93;;;3.15;;
33678;SDS011;23143;49.474;11.082;2022-09-16T00:25:48;3.47;;;2.72;;
33678;SDS011;23143;49.474;11.082;2022-09-16T00:26:22;3.55;;;2.20;;
33678;SDS011;23143;49.474;11.082;2022-09-16T00:26:53;4.82;;;3.00;;
33678;SDS011;23143;49.474;11.082;2022-09-16T00:27:24;5.93;;;3.42;;
33678;SDS011;23143;49.474;11.082;2022-09-16T00:27:54;4.80;;;3.33;;
33678;SDS011;23143;49.474;11.082;2022-09-16T00:28:25;7.85;;;2.80;;
33678;SDS011;23143;49.474;11.082;2022-09-16T00:28:56;7.55;;;3.92;;
33678;SDS011;23143;49.474;11.082;2022-09-16T00:29:26;4.80;;;3.03;;
33678;SDS011;23143;49.474;11.082;2022-09-16T00:29:57;4.70;;;2.72;;
33678;SDS011;23143;49.474;11.082;2022-09-16T00:30:28;6.10;;;3.38;;
33678;SDS011;23143;49.474;11.082;2022-09-16T00:30:59;4.72;;;2.97;;
33678;SDS011;23143;49.474;11.082;2022-09-16T00:31:30;5.82;;;3.72;;
33678;SDS011;23143;49.474;11.082;2022-09-16T00:32:01;4.18;;;3.10;;
33678;SDS011;23143;49.474;11.082;2022-09-16T00:32:31;5.78;;;3.13;;
33678;SDS011;23143;49.474;11.082;2022-09-16T00:33:02;4.32;;;3.13;;
33678;SDS011;23143;49.474;11.082;2022-09-16T00:33:33;6.40;;;2.88;;
33678;SDS011;23143;49.474;11.082;2022-09-16T00:34:03;3.88;;;2.72;;
33678;SDS011;23143;49.474;11.082;2022-09-16T00:34:34;4.60;;;2.80;;
33678;SDS011;23143;49.474;11.082;2022-09-16T00:35:05;4.13;;;3.05;;
33678;SDS011;23143;49.474;11.082;2022-09-16T00:35:36;5.78;;;2.90;;
33678;SDS011;23143;49.474;11.082;2022-09-16T00:36:08;5.00;;;2.85;;
33678;SDS011;23143;49.474;11.082;2022-09-16T00:36:40;3.95;;;2.80;;
33678;SDS011;23143;49.474;11.082;2022-09-16T00:37:11;5.53;;;3.35;;
33678;SDS011;23143;49.474;11.082;2022-09-16T00:37:42;4.07;;;2.95;;
33678;SDS011;23143;49.474;11.082;2022-09-16T00:38:12;4.53;;;2.95;;
33678;SDS011;23143;49.474;11.082;2022-09-16T00:38:43;4.07;;;2.78;;
33678;SDS011;23143;49.474;11.082;2022-09-16T00:39:14;7.65;;;3.03;;
33678;SDS011;23143;49.474;11.082;2022-09-16T00:39:48;5.75;;;2.92;;
33678;SDS011;23143;49.474;11.082;2022-09-16T00:40:19;4.22;;;2.85;;
33678;SDS011;23143;49.474;11.082;2022-09-16T00:40:50;5.50;;;2.35;;
33678;SDS011;23143;49.474;11.082;2022-09-16T00:41:25;4.68;;;3.00;;
33678;SDS011;23143;49.474;11.082;2022-09-16T00:41:57;3.75;;;2.58;;
33678;SDS011;23143;49.474;11.082;2022-09-16T00:42:27;4.95;;;3.25;;
33678;SDS011;23143;49.474;11.082;2022-09-16T00:42:58;5.22;;;3.72;;
33678;SDS011;23143;49.474;11.082;2022-09-16T00:45:28;5.60;;;3.50;;
33678;SDS011;23143;49.474;11.082;2022-09-16T00:46:01;5.80;;;3.13;;
33678;SDS011;23143;49.474;11.082;2022-09-16T00:46:41;3.80;;;2.53;;
33678;SDS011;23143;49.474;11.082;2022-09-16T00:47:14;6.55;;;3.63;;
33678;SDS011;23143;49.474;11.082;2022-09-16T00:47:50;4.88;;;2.85;;
33678;SDS011;23143;49.474;11.082;2022-09-16T00:48:23;5.45;;;3.20;;
33678;SDS011;23143;49.474;11.082;2022-09-16T00:48:56;5.22;;;2.97;;
33678;SDS011;23143;49.474;11.082;2022-09-16T00:49:28;5.40;;;3.42;;
33678;SDS011;23143;49.474;11.082;2022-09-16T00:50:55;7.13;;;3.22;;
33678;SDS011;23143;49.474;11.082;2022-09-16T00:51:31;4.47;;;3.63;;
33678;SDS011;23143;49.474;11.082;2022-09-16T00:52:02;4.07;;;2.80;;
33678;SDS011;23143;49.474;11.082;2022-09-16T00:52:34;3.50;;;2.67;;
33678;SDS011;23143;49.474;11.082;2022-09-16T00:53:10;4.68;;;2.80;;
33678;SDS011;23143;49.474;11.082;2022-09-16T00:53:56;4.07;;;2.78;;
33678;SDS011;23143;49.474;11.082;2022-09-16T00:54:31;6.03;;;3.35;;
33678;SDS011;23143;49.474;11.082;2022-09-16T00:55:05;4.25;;;2.45;;
33678;SDS011;23143;49.474;11.082;2022-09-16T00:55:38;6.00;;;3.33;;
33678;SDS011;23143;49.474;11.082;2022-09-16T00:56:10;4.50;;;2.75;;
33678;SDS011;23143;49.474;11.082;2022-09-16T00:56:42;5.78;;;3.03;;
33678;SDS011;23143;49.474;11.082;2022-09-16T00:57:14;3.25;;;2.60;;
33678;SDS011;23143;49.474;11.082;2022-09-16T00:57:45;5.65;;;3.20;;
33678;SDS011;23143;49.474;11.082;2022-09-16T00:59:42;5.82;;;3.33;;
33678;SDS011;23143;49.474;11.082;2022-09-16T01:00:15;3.30;;;2.60;;
33678;SDS011;23143;49.474;11.082;2022-09-16T01:00:46;3.97;;;3.05;;
33678;SDS011;23143;49.474;11.082;2022-09-16T01:01:17;3.28;;;2.45;;
33678;SDS011;23143;49.474;11.082;2022-09-16T01:01:48;4.82;;;3.08;;
33678;SDS011;23143;49.474;11.082;2022-09-16T01:02:20;3.95;;;2.60;;
33678;SDS011;23143;49.474;11.082;2022-09-16T01:02:51;3.97;;;2.92;;
33678;SDS011;23143;49.474;11.082;2022-09-16T01:03:22;3.60;;;2.58;;
33678;SDS011;23143;49.474;11.082;2022-09-16T01:03:54;5.07;;;3.03;;
33678;SDS011;23143;49.474;11.082;2022-09-16T01:04:28;4.93;;;3.47;;
33678;SDS011;23143;49.474;11.082;2022-09-16T01:05:05;5.00;;;2.58;;
33678;SDS011;23143;49.474;11.082;2022-09-16T01:05:38;4.40;;;2.42;;
33678;SDS011;23143;49.474;11.082;2022-09-16T01:06:09;4.57;;;2.97;;
33678;SDS011;23143;49.474;11.082;2022-09-16T01:06:41;3.95;;;2.72;;
33678;SDS011;23143;49.474;11.082;2022-09-16T01:07:12;5.45;;;3.00;;
33678;SDS011;23143;49.474;11.082;2022-09-16T01:07:47;5.93;;;3.28;;
33678;SDS011;23143;49.474;11.082;2022-09-16T01:08:18;3.55;;;2.58;;
33678;SDS011;23143;49.474;11.082;2022-09-16T01:08:49;4.45;;;2.88;;
33678;SDS011;23143;49.474;11.082;2022-09-16T01:09:21;6.75;;;2.60;;
33678;SDS011;23143;49.474;11.082;2022-09-16T01:09:52;3.20;;;2.30;;
33678;SDS011;23143;49.474;11.082;2022-09-16T01:10:23;4.93;;;2.92;;
33678;SDS011;23143;49.474;11.082;2022-09-16T01:10:54;3.80;;;2.72;;
33678;SDS011;23143;49.474;11.082;2022-09-16T01:11:25;2.92;;;2.13;;
33678;SDS011;23143;49.474;11.082;2022-09-16T01:11:56;3.80;;;2.13;;
33678;SDS011;23143;49.474;11.082;2022-09-16T01:12:27;4.85;;;3.15;;
33678;SDS011;23143;49.474;11.082;2022-09-16T01:13:01;3.75;;;2.45;;
33678;SDS011;23143;49.474;11.082;2022-09-16T01:13:33;3.35;;;2.60;;
33678;SDS011;23143;49.474;11.082;2022-09-16T01:14:04;4.15;;;2.80;;
33678;SDS011;23143;49.474;11.082;2022-09-16T01:14:54;4.90;;;2.83;;
33678;SDS011;23143;49.474;11.082;2022-09-16T01:15:52;3.72;;;2.10;;
33678;SDS011;23143;49.474;11.082;2022-09-16T01:16:28;2.95;;;2.13;;
33678;SDS011;23143;49.474;11.082;2022-09-16T01:17:52;3.58;;;2.72;;
33678;SDS011;23143;49.474;11.082;2022-09-16T01:22:58;4.43;;;2.40;;
33678;SDS011;23143;49.474;11.082;2022-09-16T01:27:28;2.45;;;2.15;;
33678;SDS011;23143;49.474;11.082;2022-09-16T01:29:09;4.80;;;3.30;;
33678;SDS011;23143;49.474;11.082;2022-09-16T01:30:02;4.22;;;2.60;;
33678;SDS011;23143;49.474;11.082;2022-09-16T01:31:31;3.90;;;2.65;;
33678;SDS011;23143;49.474;11.082;2022-09-16T01:33:16;3.88;;;2.83;;
33678;SDS011;23143;49.474;11.082;2022-09-16T01:36:41;3.45;;;2.42;;
33678;SDS011;23143;49.474;11.082;2022-09-16T01:38:24;6.25;;;3.35;;
33678;SDS011;23143;49.474;11.082;2022-09-16T01:40:00;4.35;;;2.60;;
33678;SDS011;23143;49.474;11.082;2022-09-16T01:42:20;2.22;;;2.03;;
33678;SDS011;23143;49.474;11.082;2022-09-16T01:44:19;4.70;;;2.92;;
33678;SDS011;23143;49.474;11.082;2022-09-16T01:45:04;3.88;;;2.67;;
33678;SDS011;23143;49.474;11.082;2022-09-16T01:45:40;3.38;;;2.63;;
33678;SDS011;23143;49.474;11.082;2022-09-16T01:47:19;3.15;;;2.20;;
33678;SDS011;23143;49.474;11.082;2022-09-16T01:48:41;6.53;;;2.50;;
33678;SDS011;23143;49.474;11.082;2022-09-16T01:49:37;4.65;;;3.13;;
33678;SDS011;23143;49.474;11.082;2022-09-16T01:50:16;3.08;;;2.28;;
33678;SDS011;23143;49.474;11.082;2022-09-16T01:52:29;4.45;;;2.40;;
33678;SDS011;23143;49.474;11.082;2022-09-16T01:54:11;4.10;;;2.97;;
33678;SDS011;23143;49.474;11.082;2022-09-16T01:55:05;4.03;;;2.50;;
33678;SDS011;23143;49.474;11.082;2022-09-16T01:55:47;2.70;;;2.10;;
33678;SDS011;23143;49.474;11.082;2022-09-16T01:57:34;2.92;;;2.33;;
33678;SDS011;23143;49.474;11.082;2022-09-16T01:58:58;4.40;;;2.55;;
33678;SDS011;23143;49.474;11.082;2022-09-16T01:59:37;3.63;;;2.42;;
33678;SDS011;23143;49.474;11.082;2022-09-16T02:00:11;3.90;;;2.53;;
33678;SDS011;23143;49.474;11.082;2022-09-16T02:00:43;3.30;;;2.35;;
33678;SDS011;23143;49.474;11.082;2022-09-16T02:01:15;3.05;;;2.10;;
33678;SDS011;23143;49.474;11.082;2022-09-16T02:02:02;3.58;;;2.10;;
33678;SDS011;23143;49.474;11.082;2022-09-16T02:02:39;5.10;;;3.33;;
33678;SDS011;23143;49.474;11.082;2022-09-16T02:03:14;5.10;;;2.58;;
33678;SDS011;23143;49.474;11.082;2022-09-16T02:03:49;4.53;;;2.28;;
33678;SDS011;23143;49.474;11.082;2022-09-16T02:04:26;3.22;;;2.40;;
33678;SDS011;23143;49.474;11.082;2022-09-16T02:05:02;3.55;;;3.00;;
33678;SDS011;23143;49.474;11.082;2022-09-16T02:05:38;7.32;;;2.63;;
33678;SDS011;23143;49.474;11.082;2022-09-16T02:06:13;4.70;;;2.60;;
33678;SDS011;23143;49.474;11.082;2022-09-16T02:06:50;6.53;;;3.00;;
33678;SDS011;23143;49.474;11.082;2022-09-16T02:07:28;3.97;;;3.20;;
33678;SDS011;23143;49.474;11.082;2022-09-16T02:08:07;7.40;;;3.58;;
33678;SDS011;23143;49.474;11.082;2022-09-16T02:08:44;4.05;;;3.15;;
33678;SDS011;23143;49.474;11.082;2022-09-16T02:09:28;4.57;;;3.00;;
33678;SDS011;23143;49.474;11.082;2022-09-16T02:10:04;4.05;;;2.67;;
33678;SDS011;23143;49.474;11.082;2022-09-16T02:10:59;3.75;;;2.47;;
33678;SDS011;23143;49.474;11.082;2022-09-16T02:11:31;4.00;;;2.58;;
33678;SDS011;23143;49.474;11.082;2022-09-16T02:12:03;3.55;;;2.50;;
33678;SDS011;23143;49.474;11.082;2022-09-16T02:12:36;4.45;;;3.08;;
33678;SDS011;23143;49.474;11.082;2022-09-16T02:13:13;4.35;;;2.40;;
33678;SDS011;23143;49.474;11.082;2022-09-16T02:13:50;4.72;;;2.72;;
33678;SDS011;23143;49.474;11.082;2022-09-16T02:14:23;4.75;;;2.83;;
33678;SDS011;23143;49.474;11.082;2022-09-16T02:14:58;4.30;;;2.45;;
33678;SDS011;23143;49.474;11.082;2022-09-16T02:15:33;3.90;;;2.78;;
33678;SDS011;23143;49.474;11.082;2022-09-16T02:16:07;4.90;;;2.45;;
33678;SDS011;23143;49.474;11.082;2022-09-16T02:16:42;3.55;;;2.70;;
33678;SDS011;23143;49.474;11.082;2022-09-16T02:17:19;3.67;;;2.42;;
33678;SDS011;23143;49.474;11.082;2022-09-16T02:17:54;4.43;;;2.60;;
33678;SDS011;23143;49.474;11.082;2022-09-16T02:18:29;3.20;;;2.20;;
33678;SDS011;23143;49.474;11.082;2022-09-16T02:19:05;4.45;;;2.22;;
33678;SDS011;23143;49.474;11.082;2022-09-16T02:20:04;3.30;;;2.38;;
33678;SDS011;23143;49.474;11.082;2022-09-16T02:20:41;4.18;;;2.25;;
33678;SDS011;23143;49.474;11.082;2022-09-16T02:21:14;4.00;;;2.17;;
33678;SDS011;23143;49.474;11.082;2022-09-16T02:21:45;2.90;;;2.47;;
33678;SDS011;23143;49.474;11.082;2022-09-16T02:22:17;4.85;;;2.20;;
33678;SDS011;23143;49.474;11.082;2022-09-16T02:23:03;2.60;;;2.10;;
33678;SDS011;23143;49.474;11.082;2022-09-16T02:23:46;3.78;;;2.60;;
33678;SDS011;23143;49.474;11.082;2022-09-16T02:24:19;3.53;;;2.20;;
33678;SDS011;23143;49.474;11.082;2022-09-16T02:24:51;3.35;;;1.95;;
33678;SDS011;23143;49.474;11.082;2022-09-16T02:25:22;2.75;;;2.20;;
33678;SDS011;23143;49.474;11.082;2022-09-16T02:25:53;2.28;;;2.05;;
33678;SDS011;23143;49.474;11.082;2022-09-16T02:26:26;2.83;;;2.25;;
33678;SDS011;23143;49.474;11.082;2022-09-16T02:26:59;3.70;;;2.33;;
33678;SDS011;23143;49.474;11.082;2022-09-16T02:27:32;5.80;;;2.03;;
33678;SDS011;23143;49.474;11.082;2022-09-16T02:28:04;2.63;;;1.80;;
33678;SDS011;23143;49.474;11.082;2022-09-16T02:28:42;3.28;;;2.72;;
33678;SDS011;23143;49.474;11.082;2022-09-16T02:29:18;2.80;;;2.00;;
33678;SDS011;23143;49.474;11.082;2022-09-16T02:29:53;2.38;;;2.00;;
33678;SDS011;23143;49.474;11.082;2022-09-16T02:30:26;2.08;;;1.65;;
33678;SDS011;23143;49.474;11.082;2022-09-16T02:30:56;3.65;;;2.05;;
33678;SDS011;23143;49.474;11.082;2022-09-16T02:31:31;2.90;;;1.85;;
33678;SDS011;23143;49.474;11.082;2022-09-16T02:32:04;6.55;;;2.30;;
33678;SDS011;23143;49.474;11.082;2022-09-16T02:32:37;3.35;;;2.33;;
33678;SDS011;23143;49.474;11.082;2022-09-16T02:33:10;2.63;;;1.80;;
33678;SDS011;23143;49.474;11.082;2022-09-16T02:34:15;2.75;;;2.03;;
33678;SDS011;23143;49.474;11.082;2022-09-16T02:34:49;1.90;;;1.65;;
33678;SDS011;23143;49.474;11.082;2022-09-16T02:35:21;1.80;;;1.58;;
33678;SDS011;23143;49.474;11.082;2022-09-16T02:35:52;4.43;;;1.75;;
33678;SDS011;23143;49.474;11.082;2022-09-16T02:36:24;3.58;;;2.22;;
33678;SDS011;23143;49.474;11.082;2022-09-16T02:36:56;2.42;;;2.10;;
33678;SDS011;23143;49.474;11.082;2022-09-16T02:37:30;2.58;;;2.10;;
33678;SDS011;23143;49.474;11.082;2022-09-16T02:38:06;2.28;;;1.77;;
33678;SDS011;23143;49.474;11.082;2022-09-16T02:38:41;4.25;;;2.53;;
33678;SDS011;23143;49.474;11.082;2022-09-16T02:39:19;3.30;;;2.13;;
33678;SDS011;23143;49.474;11.082;2022-09-16T02:39:55;2.35;;;1.92;;
33678;SDS011;23143;49.474;11.082;2022-09-16T02:40:34;2.35;;;1.67;;
33678;SDS011;23143;49.474;11.082;2022-09-16T02:41:09;2.50;;;2.00;;
33678;SDS011;23143;49.474;11.082;2022-09-16T02:41:43;3.15;;;2.20;;
33678;SDS011;23143;49.474;11.082;2022-09-16T02:42:14;2.30;;;1.70;;
33678;SDS011;23143;49.474;11.082;2022-09-16T02:42:46;2.78;;;2.08;;
33678;SDS011;23143;49.474;11.082;2022-09-16T02:43:16;2.03;;;1.85;;
33678;SDS011;23143;49.474;11.082;2022-09-16T02:43:48;2.65;;;2.25;;
33678;SDS011;23143;49.474;11.082;2022-09-16T02:44:19;2.90;;;2.47;;
33678;SDS011;23143;49.474;11.082;2022-09-16T02:44:49;2.63;;;2.10;;
33678;SDS011;23143;49.474;11.082;2022-09-16T02:45:21;1.67;;;1.45;;
33678;SDS011;23143;49.474;11.082;2022-09-16T02:46:59;5.25;;;2.65;;
33678;SDS011;23143;49.474;11.082;2022-09-16T02:47:55;4.00;;;2.05;;
33678;SDS011;23143;49.474;11.082;2022-09-16T02:48:55;2.25;;;1.88;;
33678;SDS011;23143;49.474;11.082;2022-09-16T02:50:46;2.47;;;1.77;;
33678;SDS011;23143;49.474;11.082;2022-09-16T02:52:17;3.17;;;2.40;;
33678;SDS011;23143;49.474;11.082;2022-09-16T02:53:18;2.58;;;1.83;;
33678;SDS011;23143;49.474;11.082;2022-09-16T02:53:57;3.63;;;2.33;;
33678;SDS011;23143;49.474;11.082;2022-09-16T02:55:12;3.15;;;2.33;;
33678;SDS011;23143;49.474;11.082;2022-09-16T02:55:37;3.50;;;2.60;;
33678;SDS011;23143;49.474;11.082;2022-09-16T02:57:01;3.08;;;1.90;;
33678;SDS011;23143;49.474;11.082;2022-09-16T02:57:33;4.55;;;1.90;;
33678;SDS011;23143;49.474;11.082;2022-09-16T02:58:05;2.65;;;2.28;;
33678;SDS011;23143;49.474;11.082;2022-09-16T02:58:36;3.22;;;2.13;;
33678;SDS011;23143;49.474;11.082;2022-09-16T02:59:09;3.63;;;3.30;;
33678;SDS011;23143;49.474;11.082;2022-09-16T02:59:41;2.47;;;1.98;;
33678;SDS011;23143;49.474;11.082;2022-09-16T03:00:12;2.83;;;1.70;;
33678;SDS011;23143;49.474;11.082;2022-09-16T03:00:45;4.30;;;1.98;;
33678;SDS011;23143;49.474;11.082;2022-09-16T03:01:17;2.83;;;2.25;;
33678;SDS011;23143;49.474;11.082;2022-09-16T03:01:49;3.28;;;1.92;;
33678;SDS011;23143;49.474;11.082;2022-09-16T03:02:20;3.78;;;2.17;;
33678;SDS011;23143;49.474;11.082;2022-09-16T03:02:51;4.72;;;1.92;;
33678;SDS011;23143;49.474;11.082;2022-09-16T03:03:23;5.45;;;2.13;;
33678;SDS011;23143;49.474;11.082;2022-09-16T03:03:54;3.47;;;2.45;;
33678;SDS011;23143;49.474;11.082;2022-09-16T03:04:25;4.05;;;2.55;;
33678;SDS011;23143;49.474;11.082;2022-09-16T03:04:57;4.97;;;2.22;;
33678;SDS011;23143;49.474;11.082;2022-09-16T03:05:28;2.53;;;2.00;;
33678;SDS011;23143;49.474;11.082;2022-09-16T03:06:35;2.53;;;2.05;;
33678;SDS011;23143;49.474;11.082;2022-09-16T03:07:07;3.03;;;1.60;;
33678;SDS011;23143;49.474;11.082;2022-09-16T03:07:38;2.88;;;1.95;;
33678;SDS011;23143;49.474;11.082;2022-09-16T03:08:10;2.60;;;2.10;;
33678;SDS011;23143;49.474;11.082;2022-09-16T03:08:40;2.50;;;1.58;;
33678;SDS011;23143;49.474;11.082;2022-09-16T03:09:12;3.72;;;2.40;;
33678;SDS011;23143;49.474;11.082;2022-09-16T03:09:44;2.40;;;1.83;;
33678;SDS011;23143;49.474;11.082;2022-09-16T03:10:16;4.97;;;2.25;;
33678;SDS011;23143;49.474;11.082;2022-09-16T03:10:47;4.22;;;1.80;;
33678;SDS011;23143;49.474;11.082;2022-09-16T03:12:18;3.00;;;2.28;;
33678;SDS011;23143;49.474;11.082;2022-09-16T03:13:12;3.67;;;1.90;;
33678;SDS011;23143;49.474;11.082;2022-09-16T03:14:06;2.55;;;1.65;;
33678;SDS011;23143;49.474;11.082;2022-09-16T03:17:14;2.53;;;1.70;;
33678;SDS011;23143;49.474;11.082;2022-09-16T03:20:03;3.10;;;2.08;;
33678;SDS011;23143;49.474;11.082;2022-09-16T03:21:29;2.30;;;1.50;;
33678;SDS011;23143;49.474;11.082;2022-09-16T03:22:48;2.20;;;1.88;;
33678;SDS011;23143;49.474;11.082;2022-09-16T03:23:41;4.13;;;2.03;;
33678;SDS011;23143;49.474;11.082;2022-09-16T03:24:58;3.55;;;2.65;;
33678;SDS011;23143;49.474;11.082;2022-09-16T03:27:10;2.38;;;1.75;;
33678;SDS011;23143;49.474;11.082;2022-09-16T03:27:49;3.35;;;2.05;;
33678;SDS011;23143;49.474;11.082;2022-09-16T03:28:25;5.65;;;2.45;;
33678;SDS011;23143;49.474;11.082;2022-09-16T03:29:52;6.50;;;2.20;;
33678;SDS011;23143;49.474;11.082;2022-09-16T03:30:26;4.15;;;2.50;;
33678;SDS011;23143;49.474;11.082;2022-09-16T03:31:12;4.07;;;2.38;;
33678;SDS011;23143;49.474;11.082;2022-09-16T03:32:40;3.42;;;2.47;;
33678;SDS011;23143;49.474;11.082;2022-09-16T03:33:28;3.55;;;2.63;;
33678;SDS011;23143;49.474;11.082;2022-09-16T03:34:14;4.03;;;2.40;;
33678;SDS011;23143;49.474;11.082;2022-09-16T03:34:53;2.08;;;1.90;;
33678;SDS011;23143;49.474;11.082;2022-09-16T03:35:45;3.80;;;2.08;;
33678;SDS011;23143;49.474;11.082;2022-09-16T03:36:18;3.03;;;2.30;;
33678;SDS011;23143;49.474;11.082;2022-09-16T03:36:51;5.03;;;2.40;;
33678;SDS011;23143;49.474;11.082;2022-09-16T03:37:23;7.10;;;3.17;;
33678;SDS011;23143;49.474;11.082;2022-09-16T03:37:54;4.30;;;3.10;;
33678;SDS011;23143;49.474;11.082;2022-09-16T03:38:27;4.63;;;2.58;;
33678;SDS011;23143;49.474;11.082;2022-09-16T03:38:58;3.15;;;2.35;;
33678;SDS011;23143;49.474;11.082;2022-09-16T03:39:30;3.13;;;2.20;;
33678;SDS011;23143;49.474;11.082;2022-09-16T03:40:07;3.17;;;2.25;;
33678;SDS011;23143;49.474;11.082;2022-09-16T03:40:40;2.47;;;1.85;;
33678;SDS011;23143;49.474;11.082;2022-09-16T03:41:11;4.30;;;2.50;;
33678;SDS011;23143;49.474;11.082;2022-09-16T03:41:42;3.78;;;2.92;;
33678;SDS011;23143;49.474;11.082;2022-09-16T03:42:13;2.88;;;2.30;;
33678;SDS011;23143;49.474;11.082;2022-09-16T03:42:44;4.30;;;2.42;;
33678;SDS011;23143;49.474;11.082;2022-09-16T03:43:15;4.40;;;2.97;;
33678;SDS011;23143;49.474;11.082;2022-09-16T03:43:56;4.55;;;3.33;;
33678;SDS011;23143;49.474;11.082;2022-09-16T03:44:34;3.75;;;2.42;;
33678;SDS011;23143;49.474;11.082;2022-09-16T03:45:06;7.43;;;2.50;;
33678;SDS011;23143;49.474;11.082;2022-09-16T03:45:38;2.47;;;1.90;;
33678;SDS011;23143;49.474;11.082;2022-09-16T03:46:13;4.03;;;2.50;;
33678;SDS011;23143;49.474;11.082;2022-09-16T03:46:44;3.35;;;2.22;;
33678;SDS011;23143;49.474;11.082;2022-09-16T03:47:15;2.78;;;2.03;;
33678;SDS011;23143;49.474;11.082;2022-09-16T03:47:47;3.00;;;2.47;;
33678;SDS011;23143;49.474;11.082;2022-09-16T03:48:19;3.58;;;2.67;;
33678;SDS011;23143;49.474;11.082;2022-09-16T03:48:49;3.38;;;2.60;;
33678;SDS011;23143;49.474;11.082;2022-09-16T03:49:20;3.38;;;2.45;;
33678;SDS011;23143;49.474;11.082;2022-09-16T03:49:51;3.83;;;2.35;;
33678;SDS011;23143;49.474;11.082;2022-09-16T03:50:21;4.07;;;1.52;;
33678;SDS011;23143;49.474;11.082;2022-09-16T03:50:52;2.95;;;2.15;;
33678;SDS011;23143;49.474;11.082;2022-09-16T03:51:23;3.15;;;2.20;;
33678;SDS011;23143;49.474;11.082;2022-09-16T03:51:55;2.25;;;1.88;;
33678;SDS011;23143;49.474;11.082;2022-09-16T03:52:26;3.10;;;1.77;;
33678;SDS011;23143;49.474;11.082;2022-09-16T03:52:57;2.67;;;2.25;;
33678;SDS011;23143;49.474;11.082;2022-09-16T03:53:27;5.13;;;2.13;;
33678;SDS011;23143;49.474;11.082;2022-09-16T03:53:58;3.33;;;1.90;;
33678;SDS011;23143;49.474;11.082;2022-09-16T03:54:29;3.33;;;2.30;;
33678;SDS011;23143;49.474;11.082;2022-09-16T03:55:00;4.78;;;1.88;;
33678;SDS011;23143;49.474;11.082;2022-09-16T03:55:30;4.45;;;2.92;;
33678;SDS011;23143;49.474;11.082;2022-09-16T03:56:01;2.33;;;1.70;;
33678;SDS011;23143;49.474;11.082;2022-09-16T03:56:32;1.83;;;1.52;;
33678;SDS011;23143;49.474;11.082;2022-09-16T03:57:03;3.50;;;2.40;;
33678;SDS011;23143;49.474;11.082;2022-09-16T03:57:34;2.83;;;2.00;;
33678;SDS011;23143;49.474;11.082;2022-09-16T03:58:05;3.72;;;2.60;;
33678;SDS011;23143;49.474;11.082;2022-09-16T03:58:35;5.13;;;2.38;;
33678;SDS011;23143;49.474;11.082;2022-09-16T03:59:06;2.65;;;1.73;;
33678;SDS011;23143;49.474;11.082;2022-09-16T03:59:37;5.18;;;2.80;;
33678;SDS011;23143;49.474;11.082;2022-09-16T04:00:07;4.45;;;2.78;;
33678;SDS011;23143;49.474;11.082;2022-09-16T04:00:39;3.60;;;2.25;;
33678;SDS011;23143;49.474;11.082;2022-09-16T04:01:09;2.67;;;2.33;;
33678;SDS011;23143;49.474;11.082;2022-09-16T04:01:40;5.15;;;2.85;;
33678;SDS011;23143;49.474;11.082;2022-09-16T04:02:10;4.10;;;3.03;;
33678;SDS011;23143;49.474;11.082;2022-09-16T04:02:41;5.45;;;3.40;;
33678;SDS011;23143;49.474;11.082;2022-09-16T04:03:12;3.90;;;3.10;;
33678;SDS011;23143;49.474;11.082;2022-09-16T04:03:42;5.55;;;3.17;;
33678;SDS011;23143;49.474;11.082;2022-09-16T04:04:13;7.75;;;3.17;;
33678;SDS011;23143;49.474;11.082;2022-09-16T04:04:43;3.90;;;3.03;;
33678;SDS011;23143;49.474;11.082;2022-09-16T04:05:14;6.88;;;3.05;;
33678;SDS011;23143;49.474;11.082;2022-09-16T04:05:45;5.50;;;3.13;;
33678;SDS011;23143;49.474;11.082;2022-09-16T04:06:24;7.38;;;2.70;;
33678;SDS011;23143;49.474;11.082;2022-09-16T04:06:55;4.50;;;2.92;;
33678;SDS011;23143;49.474;11.082;2022-09-16T04:07:25;4.65;;;3.15;;
33678;SDS011;23143;49.474;11.082;2022-09-16T04:07:56;4.60;;;2.53;;
33678;SDS011;23143;49.474;11.082;2022-09-16T04:08:27;4.10;;;2.92;;
33678;SDS011;23143;49.474;11.082;2022-09-16T04:08:57;3.80;;;2.53;;
33678;SDS011;23143;49.474;11.082;2022-09-16T04:09:29;2.67;;;1.88;;